sensor_id;sensor_type;location;lat;lon;timestamp;P1;durP1;ratioP1;P2;durP2;ratioP2
77262;SDS011;66373;52.334;4.806;2023-12-04T00:01:48;7.55;;;5.65;;
77262;SDS011;66373;52.334;4.806;2023-12-04T00:04:15;7.32;;;4.95;;
77262;SDS011;66373;52.334;4.806;2023-12-04T00:06:42;9.13;;;5.07;;
77262;SDS011;66373;52.334;4.806;2023-12-04T00:09:09;6.72;;;5.03;;
77262;SDS011;66373;52.334;4.806;2023-12-04T00:11:36;6.47;;;5.45;;
77262;SDS011;66373;52.334;4.806;2023-12-04T00:14:03;8.40;;;5.63;;
77262;SDS011;66373;52.334;4.806;2023-12-04T00:16:33;12.52;;;5.50;;
77262;SDS011;66373;52.334;4.806;2023-12-04T00:19:02;6.35;;;5.45;;
77262;SDS011;66373;52.334;4.806;2023-12-04T00:21:29;7.97;;;5.22;;
77262;SDS011;66373;52.334;4.806;2023-12-04T00:23:56;5.93;;;5.28;;
77262;SDS011;66373;52.334;4.806;2023-12-04T00:26:23;7.43;;;5.28;;
77262;SDS011;66373;52.334;4.806;2023-12-04T00:28:50;6.15;;;5.00;;
77262;SDS011;66373;52.334;4.806;2023-12-04T00:31:17;7.47;;;5.38;;
77262;SDS011;66373;52.334;4.806;2023-12-04T00:33:44;6.60;;;5.22;;
77262;SDS011;66373;52.334;4.806;2023-12-04T00:36:14;7.78;;;5.53;;
77262;SDS011;66373;52.334;4.806;2023-12-04T00:38:41;6.72;;;5.20;;
77262;SDS011;66373;52.334;4.806;2023-12-04T00:41:08;6.25;;;5.30;;
77262;SDS011;66373;52.334;4.806;2023-12-04T00:43:37;8.93;;;5.25;;
77262;SDS011;66373;52.334;4.806;2023-12-04T00:46:04;6.15;;;4.68;;
77262;SDS011;66373;52.334;4.806;2023-12-04T00:48:31;5.60;;;5.05;;
77262;SDS011;66373;52.334;4.806;2023-12-04T00:50:58;9.10;;;5.55;;
77262;SDS011;66373;52.334;4.806;2023-12-04T00:53:26;5.63;;;4.95;;
77262;SDS011;66373;52.334;4.806;2023-12-04T00:55:54;6.38;;;5.10;;
77262;SDS011;66373;52.334;4.806;2023-12-04T00:58:21;5.50;;;4.78;;
77262;SDS011;66373;52.334;4.806;2023-12-04T01:00:48;6.72;;;5.45;;
77262;SDS011;66373;52.334;4.806;2023-12-04T01:03:17;6.07;;;4.63;;
77262;SDS011;66373;52.334;4.806;2023-12-04T01:05:44;5.38;;;4.88;;
77262;SDS011;66373;52.334;4.806;2023-12-04T01:08:11;6.90;;;5.28;;
77262;SDS011;66373;52.334;4.806;2023-12-04T01:10:40;7.00;;;5.28;;
77262;SDS011;66373;52.334;4.806;2023-12-04T01:13:07;5.95;;;4.65;;
77262;SDS011;66373;52.334;4.806;2023-12-04T01:15:34;6.57;;;5.20;;
77262;SDS011;66373;52.334;4.806;2023-12-04T01:18:01;5.90;;;4.82;;
77262;SDS011;66373;52.334;4.806;2023-12-04T01:20:28;7.50;;;4.80;;
77262;SDS011;66373;52.334;4.806;2023-12-04T01:22:56;4.90;;;4.40;;
77262;SDS011;66373;52.334;4.806;2023-12-04T01:25:23;7.10;;;5.10;;
77262;SDS011;66373;52.334;4.806;2023-12-04T01:27:51;6.25;;;5.10;;
77262;SDS011;66373;52.334;4.806;2023-12-04T01:30:18;7.10;;;5.00;;
77262;SDS011;66373;52.334;4.806;2023-12-04T01:32:45;5.88;;;4.93;;
77262;SDS011;66373;52.334;4.806;2023-12-04T01:35:12;6.53;;;5.20;;
77262;SDS011;66373;52.334;4.806;2023-12-04T01:37:39;5.80;;;4.63;;
77262;SDS011;66373;52.334;4.806;2023-12-04T01:40:07;5.80;;;5.15;;
77262;SDS011;66373;52.334;4.806;2023-12-04T01:42:35;5.70;;;4.88;;
77262;SDS011;66373;52.334;4.806;2023-12-04T01:45:04;5.63;;;5.00;;
77262;SDS011;66373;52.334;4.806;2023-12-04T01:47:32;5.30;;;4.43;;
77262;SDS011;66373;52.334;4.806;2023-12-04T01:50:00;5.05;;;4.00;;
77262;SDS011;66373;52.334;4.806;2023-12-04T01:52:27;6.18;;;4.85;;
77262;SDS011;66373;52.334;4.806;2023-12-04T01:54:54;5.30;;;4.80;;
77262;SDS011;66373;52.334;4.806;2023-12-04T01:57:22;6.30;;;4.30;;
77262;SDS011;66373;52.334;4.806;2023-12-04T01:59:49;5.10;;;4.25;;
77262;SDS011;66373;52.334;4.806;2023-12-04T02:02:17;4.93;;;4.40;;
77262;SDS011;66373;52.334;4.806;2023-12-04T02:04:45;5.97;;;4.20;;
77262;SDS011;66373;52.334;4.806;2023-12-04T02:07:12;6.10;;;4.60;;
77262;SDS011;66373;52.334;4.806;2023-12-04T02:09:40;4.53;;;4.13;;
77262;SDS011;66373;52.334;4.806;2023-12-04T02:12:07;5.13;;;4.47;;
77262;SDS011;66373;52.334;4.806;2023-12-04T02:14:34;4.85;;;4.35;;
77262;SDS011;66373;52.334;4.806;2023-12-04T02:17:01;4.10;;;3.70;;
77262;SDS011;66373;52.334;4.806;2023-12-04T02:19:34;5.20;;;4.00;;
77262;SDS011;66373;52.334;4.806;2023-12-04T02:22:01;5.00;;;4.10;;
77262;SDS011;66373;52.334;4.806;2023-12-04T02:24:30;4.85;;;4.35;;
77262;SDS011;66373;52.334;4.806;2023-12-04T02:27:02;5.85;;;4.47;;
77262;SDS011;66373;52.334;4.806;2023-12-04T02:29:37;5.30;;;4.50;;
77262;SDS011;66373;52.334;4.806;2023-12-04T02:32:09;5.22;;;4.70;;
77262;SDS011;66373;52.334;4.806;2023-12-04T02:34:41;4.25;;;3.85;;
77262;SDS011;66373;52.334;4.806;2023-12-04T02:37:10;6.97;;;3.80;;
77262;SDS011;66373;52.334;4.806;2023-12-04T02:39:39;4.22;;;3.88;;
77262;SDS011;66373;52.334;4.806;2023-12-04T02:42:07;5.22;;;3.97;;
77262;SDS011;66373;52.334;4.806;2023-12-04T02:44:34;4.50;;;4.10;;
77262;SDS011;66373;52.334;4.806;2023-12-04T02:47:01;4.25;;;3.85;;
77262;SDS011;66373;52.334;4.806;2023-12-04T02:49:29;5.72;;;4.55;;
77262;SDS011;66373;52.334;4.806;2023-12-04T02:51:56;4.78;;;4.20;;
77262;SDS011;66373;52.334;4.806;2023-12-04T02:54:23;4.30;;;3.90;;
77262;SDS011;66373;52.334;4.806;2023-12-04T02:56:52;4.80;;;4.40;;
77262;SDS011;66373;52.334;4.806;2023-12-04T02:59:19;4.82;;;4.32;;
77262;SDS011;66373;52.334;4.806;2023-12-04T03:01:46;4.18;;;3.78;;
77262;SDS011;66373;52.334;4.806;2023-12-04T03:04:13;4.38;;;3.95;;
77262;SDS011;66373;52.334;4.806;2023-12-04T03:06:40;3.90;;;3.60;;
77262;SDS011;66373;52.334;4.806;2023-12-04T03:09:07;4.70;;;3.92;;
77262;SDS011;66373;52.334;4.806;2023-12-04T03:11:34;4.25;;;3.92;;
77262;SDS011;66373;52.334;4.806;2023-12-04T03:14:02;4.35;;;3.95;;
77262;SDS011;66373;52.334;4.806;2023-12-04T03:16:29;4.35;;;3.95;;
77262;SDS011;66373;52.334;4.806;2023-12-04T03:18:57;5.03;;;4.40;;
77262;SDS011;66373;52.334;4.806;2023-12-04T03:21:24;4.15;;;3.80;;
77262;SDS011;66373;52.334;4.806;2023-12-04T03:23:51;4.20;;;3.80;;
77262;SDS011;66373;52.334;4.806;2023-12-04T03:26:18;3.92;;;3.53;;
77262;SDS011;66373;52.334;4.806;2023-12-04T03:28:45;4.47;;;4.00;;
77262;SDS011;66373;52.334;4.806;2023-12-04T03:31:13;4.80;;;3.92;;
77262;SDS011;66373;52.334;4.806;2023-12-04T03:33:41;4.97;;;3.78;;
77262;SDS011;66373;52.334;4.806;2023-12-04T03:36:08;3.72;;;3.42;;
77262;SDS011;66373;52.334;4.806;2023-12-04T03:38:35;3.70;;;3.40;;
77262;SDS011;66373;52.334;4.806;2023-12-04T03:41:02;3.97;;;3.67;;
77262;SDS011;66373;52.334;4.806;2023-12-04T03:43:30;4.53;;;4.13;;
77262;SDS011;66373;52.334;4.806;2023-12-04T03:45:57;3.80;;;3.50;;
77262;SDS011;66373;52.334;4.806;2023-12-04T03:48:25;4.10;;;3.70;;
77262;SDS011;66373;52.334;4.806;2023-12-04T03:50:52;3.83;;;3.42;;
77262;SDS011;66373;52.334;4.806;2023-12-04T03:53:19;5.32;;;4.00;;
77262;SDS011;66373;52.334;4.806;2023-12-04T03:55:46;3.40;;;3.10;;
77262;SDS011;66373;52.334;4.806;2023-12-04T03:58:13;4.45;;;3.50;;
77262;SDS011;66373;52.334;4.806;2023-12-04T04:00:40;3.63;;;3.33;;
77262;SDS011;66373;52.334;4.806;2023-12-04T04:03:09;4.30;;;3.90;;
77262;SDS011;66373;52.334;4.806;2023-12-04T04:05:37;4.03;;;3.60;;
77262;SDS011;66373;52.334;4.806;2023-12-04T04:08:07;3.60;;;3.20;;
77262;SDS011;66373;52.334;4.806;2023-12-04T04:10:34;3.50;;;3.20;;
77262;SDS011;66373;52.334;4.806;2023-12-04T04:13:01;3.80;;;3.50;;
77262;SDS011;66373;52.334;4.806;2023-12-04T04:15:28;4.18;;;3.78;;
77262;SDS011;66373;52.334;4.806;2023-12-04T04:17:55;3.15;;;2.92;;
77262;SDS011;66373;52.334;4.806;2023-12-04T04:20:22;4.43;;;4.03;;
77262;SDS011;66373;52.334;4.806;2023-12-04T04:22:51;4.13;;;3.72;;
77262;SDS011;66373;52.334;4.806;2023-12-04T04:25:19;3.80;;;3.45;;
77262;SDS011;66373;52.334;4.806;2023-12-04T04:27:47;3.63;;;3.33;;
77262;SDS011;66373;52.334;4.806;2023-12-04T04:30:14;4.70;;;3.88;;
77262;SDS011;66373;52.334;4.806;2023-12-04T04:32:42;4.07;;;3.70;;
77262;SDS011;66373;52.334;4.806;2023-12-04T04:35:09;3.25;;;2.92;;
77262;SDS011;66373;52.334;4.806;2023-12-04T04:37:37;3.78;;;3.38;;
77262;SDS011;66373;52.334;4.806;2023-12-04T04:40:06;3.95;;;3.53;;
77262;SDS011;66373;52.334;4.806;2023-12-04T04:42:34;3.40;;;3.10;;
77262;SDS011;66373;52.334;4.806;2023-12-04T04:45:01;3.60;;;3.25;;
77262;SDS011;66373;52.334;4.806;2023-12-04T04:47:28;3.88;;;3.20;;
77262;SDS011;66373;52.334;4.806;2023-12-04T04:49:55;3.60;;;3.30;;
77262;SDS011;66373;52.334;4.806;2023-12-04T04:52:22;3.10;;;2.90;;
77262;SDS011;66373;52.334;4.806;2023-12-04T04:54:49;3.63;;;3.33;;
77262;SDS011;66373;52.334;4.806;2023-12-04T04:57:17;7.05;;;3.53;;
77262;SDS011;66373;52.334;4.806;2023-12-04T04:59:44;3.95;;;3.40;;
77262;SDS011;66373;52.334;4.806;2023-12-04T05:02:11;3.60;;;3.30;;
77262;SDS011;66373;52.334;4.806;2023-12-04T05:04:39;3.92;;;3.55;;
77262;SDS011;66373;52.334;4.806;2023-12-04T05:07:06;3.67;;;3.38;;
77262;SDS011;66373;52.334;4.806;2023-12-04T05:09:33;3.97;;;3.30;;
77262;SDS011;66373;52.334;4.806;2023-12-04T05:12:00;3.58;;;3.28;;
77262;SDS011;66373;52.334;4.806;2023-12-04T05:14:28;3.72;;;3.42;;
77262;SDS011;66373;52.334;4.806;2023-12-04T05:16:55;3.67;;;3.38;;
77262;SDS011;66373;52.334;4.806;2023-12-04T05:19:22;3.45;;;3.15;;
77262;SDS011;66373;52.334;4.806;2023-12-04T05:21:49;3.90;;;3.60;;
77262;SDS011;66373;52.334;4.806;2023-12-04T05:24:16;3.53;;;3.22;;
77262;SDS011;66373;52.334;4.806;2023-12-04T05:26:43;3.60;;;3.30;;
77262;SDS011;66373;52.334;4.806;2023-12-04T05:29:10;3.58;;;3.30;;
77262;SDS011;66373;52.334;4.806;2023-12-04T05:31:39;3.50;;;3.20;;
77262;SDS011;66373;52.334;4.806;2023-12-04T05:34:06;5.32;;;3.67;;
77262;SDS011;66373;52.334;4.806;2023-12-04T05:36:33;4.32;;;3.10;;
77262;SDS011;66373;52.334;4.806;2023-12-04T05:39:00;3.97;;;3.15;;
77262;SDS011;66373;52.334;4.806;2023-12-04T05:41:28;3.92;;;3.05;;
77262;SDS011;66373;52.334;4.806;2023-12-04T05:43:55;3.60;;;3.30;;
77262;SDS011;66373;52.334;4.806;2023-12-04T05:46:22;3.83;;;3.38;;
77262;SDS011;66373;52.334;4.806;2023-12-04T05:48:51;3.55;;;3.30;;
77262;SDS011;66373;52.334;4.806;2023-12-04T05:51:18;3.70;;;3.40;;
77262;SDS011;66373;52.334;4.806;2023-12-04T05:53:45;3.60;;;3.30;;
77262;SDS011;66373;52.334;4.806;2023-12-04T05:56:12;3.08;;;2.88;;
77262;SDS011;66373;52.334;4.806;2023-12-04T05:58:39;4.05;;;3.35;;
77262;SDS011;66373;52.334;4.806;2023-12-04T06:01:06;4.70;;;3.35;;
77262;SDS011;66373;52.334;4.806;2023-12-04T06:03:34;4.72;;;3.78;;
77262;SDS011;66373;52.334;4.806;2023-12-04T06:06:02;7.95;;;3.72;;
77262;SDS011;66373;52.334;4.806;2023-12-04T06:08:30;3.67;;;3.33;;
77262;SDS011;66373;52.334;4.806;2023-12-04T06:10:57;5.10;;;3.22;;
77262;SDS011;66373;52.334;4.806;2023-12-04T06:13:24;4.03;;;3.40;;
77262;SDS011;66373;52.334;4.806;2023-12-04T06:15:51;4.68;;;3.55;;
77262;SDS011;66373;52.334;4.806;2023-12-04T06:18:18;4.50;;;3.30;;
77262;SDS011;66373;52.334;4.806;2023-12-04T06:20:46;4.80;;;3.88;;
77262;SDS011;66373;52.334;4.806;2023-12-04T06:23:15;8.63;;;3.70;;
77262;SDS011;66373;52.334;4.806;2023-12-04T06:25:43;8.02;;;3.63;;
77262;SDS011;66373;52.334;4.806;2023-12-04T06:28:11;4.03;;;3.42;;
77262;SDS011;66373;52.334;4.806;2023-12-04T06:30:39;3.78;;;3.28;;
77262;SDS011;66373;52.334;4.806;2023-12-04T06:33:07;3.83;;;3.42;;
77262;SDS011;66373;52.334;4.806;2023-12-04T06:35:35;5.10;;;3.42;;
77262;SDS011;66373;52.334;4.806;2023-12-04T06:38:03;12.02;;;3.45;;
77262;SDS011;66373;52.334;4.806;2023-12-04T06:40:34;5.35;;;3.78;;
77262;SDS011;66373;52.334;4.806;2023-12-04T06:43:02;7.00;;;3.30;;
77262;SDS011;66373;52.334;4.806;2023-12-04T06:45:30;7.43;;;3.40;;
77262;SDS011;66373;52.334;4.806;2023-12-04T06:47:58;5.78;;;3.35;;
77262;SDS011;66373;52.334;4.806;2023-12-04T06:50:26;5.82;;;3.17;;
77262;SDS011;66373;52.334;4.806;2023-12-04T06:52:53;6.03;;;3.38;;
77262;SDS011;66373;52.334;4.806;2023-12-04T06:55:20;4.72;;;3.45;;
77262;SDS011;66373;52.334;4.806;2023-12-04T06:57:48;6.07;;;3.67;;
77262;SDS011;66373;52.334;4.806;2023-12-04T07:00:15;7.18;;;3.30;;
77262;SDS011;66373;52.334;4.806;2023-12-04T07:02:43;5.95;;;3.40;;
77262;SDS011;66373;52.334;4.806;2023-12-04T07:05:10;5.65;;;3.67;;
77262;SDS011;66373;52.334;4.806;2023-12-04T07:07:37;6.03;;;3.10;;
77262;SDS011;66373;52.334;4.806;2023-12-04T07:10:04;8.30;;;3.33;;
77262;SDS011;66373;52.334;4.806;2023-12-04T07:12:32;3.63;;;3.20;;
77262;SDS011;66373;52.334;4.806;2023-12-04T07:15:00;9.60;;;3.45;;
77262;SDS011;66373;52.334;4.806;2023-12-04T07:17:27;6.20;;;4.00;;
77262;SDS011;66373;52.334;4.806;2023-12-04T07:19:54;15.98;;;5.10;;
77262;SDS011;66373;52.334;4.806;2023-12-04T07:22:21;15.20;;;4.43;;
77262;SDS011;66373;52.334;4.806;2023-12-04T07:24:48;6.18;;;4.00;;
77262;SDS011;66373;52.334;4.806;2023-12-04T07:27:16;8.00;;;4.32;;
77262;SDS011;66373;52.334;4.806;2023-12-04T07:29:43;6.90;;;3.83;;
77262;SDS011;66373;52.334;4.806;2023-12-04T07:32:12;7.70;;;3.95;;
77262;SDS011;66373;52.334;4.806;2023-12-04T07:34:39;7.43;;;3.88;;
77262;SDS011;66373;52.334;4.806;2023-12-04T07:37:06;4.47;;;3.85;;
77262;SDS011;66373;52.334;4.806;2023-12-04T07:39:33;8.02;;;4.07;;
77262;SDS011;66373;52.334;4.806;2023-12-04T07:42:00;8.38;;;3.83;;
77262;SDS011;66373;52.334;4.806;2023-12-04T07:44:28;7.43;;;3.85;;
77262;SDS011;66373;52.334;4.806;2023-12-04T07:46:55;5.65;;;3.33;;
77262;SDS011;66373;52.334;4.806;2023-12-04T07:49:22;7.38;;;3.50;;
77262;SDS011;66373;52.334;4.806;2023-12-04T07:51:50;5.80;;;3.38;;
77262;SDS011;66373;52.334;4.806;2023-12-04T07:54:17;5.32;;;3.00;;
77262;SDS011;66373;52.334;4.806;2023-12-04T07:56:44;3.72;;;3.03;;
77262;SDS011;66373;52.334;4.806;2023-12-04T07:59:11;4.60;;;3.58;;
77262;SDS011;66373;52.334;4.806;2023-12-04T08:01:38;3.63;;;3.30;;
77262;SDS011;66373;52.334;4.806;2023-12-04T08:04:05;4.35;;;3.40;;
77262;SDS011;66373;52.334;4.806;2023-12-04T08:06:33;3.65;;;2.72;;
77262;SDS011;66373;52.334;4.806;2023-12-04T08:09:01;5.85;;;3.40;;
77262;SDS011;66373;52.334;4.806;2023-12-04T08:11:28;3.78;;;3.40;;
77262;SDS011;66373;52.334;4.806;2023-12-04T08:13:55;3.38;;;3.03;;
77262;SDS011;66373;52.334;4.806;2023-12-04T08:16:22;4.30;;;3.03;;
77262;SDS011;66373;52.334;4.806;2023-12-04T08:18:49;4.47;;;3.17;;
77262;SDS011;66373;52.334;4.806;2023-12-04T08:21:16;3.80;;;3.00;;
77262;SDS011;66373;52.334;4.806;2023-12-04T08:23:44;4.35;;;2.97;;
77262;SDS011;66373;52.334;4.806;2023-12-04T08:26:11;3.53;;;2.78;;
77262;SDS011;66373;52.334;4.806;2023-12-04T08:28:40;3.60;;;3.15;;
77262;SDS011;66373;52.334;4.806;2023-12-04T08:31:07;3.53;;;3.10;;
77262;SDS011;66373;52.334;4.806;2023-12-04T08:33:35;7.68;;;2.95;;
77262;SDS011;66373;52.334;4.806;2023-12-04T08:36:02;3.78;;;2.90;;
77262;SDS011;66373;52.334;4.806;2023-12-04T08:38:30;3.20;;;2.90;;
77262;SDS011;66373;52.334;4.806;2023-12-04T08:40:58;3.42;;;3.13;;
77262;SDS011;66373;52.334;4.806;2023-12-04T08:43:25;3.53;;;3.08;;
77262;SDS011;66373;52.334;4.806;2023-12-04T08:45:54;4.20;;;3.00;;
77262;SDS011;66373;52.334;4.806;2023-12-04T08:48:21;3.30;;;2.83;;
77262;SDS011;66373;52.334;4.806;2023-12-04T08:50:48;3.00;;;2.70;;
77262;SDS011;66373;52.334;4.806;2023-12-04T08:53:15;3.38;;;3.08;;
77262;SDS011;66373;52.334;4.806;2023-12-04T08:55:42;7.45;;;3.35;;
77262;SDS011;66373;52.334;4.806;2023-12-04T08:58:11;4.90;;;3.22;;
77262;SDS011;66373;52.334;4.806;2023-12-04T09:00:38;4.88;;;2.70;;
77262;SDS011;66373;52.334;4.806;2023-12-04T09:03:08;3.97;;;3.15;;
77262;SDS011;66373;52.334;4.806;2023-12-04T09:05:35;3.10;;;2.78;;
77262;SDS011;66373;52.334;4.806;2023-12-04T09:08:04;4.28;;;3.05;;
77262;SDS011;66373;52.334;4.806;2023-12-04T09:10:31;3.72;;;3.00;;
77262;SDS011;66373;52.334;4.806;2023-12-04T09:12:58;4.35;;;3.10;;
77262;SDS011;66373;52.334;4.806;2023-12-04T09:15:27;3.13;;;2.83;;
77262;SDS011;66373;52.334;4.806;2023-12-04T09:17:54;7.88;;;2.67;;
77262;SDS011;66373;52.334;4.806;2023-12-04T09:20:21;3.25;;;2.97;;
77262;SDS011;66373;52.334;4.806;2023-12-04T09:22:48;3.03;;;2.65;;
77262;SDS011;66373;52.334;4.806;2023-12-04T09:25:15;5.70;;;2.90;;
77262;SDS011;66373;52.334;4.806;2023-12-04T09:27:43;3.53;;;3.05;;
77262;SDS011;66373;52.334;4.806;2023-12-04T09:30:10;5.30;;;2.88;;
77262;SDS011;66373;52.334;4.806;2023-12-04T09:32:40;3.35;;;2.80;;
77262;SDS011;66373;52.334;4.806;2023-12-04T09:35:07;3.85;;;3.17;;
77262;SDS011;66373;52.334;4.806;2023-12-04T09:37:36;3.88;;;3.05;;
77262;SDS011;66373;52.334;4.806;2023-12-04T09:40:04;5.45;;;3.35;;
77262;SDS011;66373;52.334;4.806;2023-12-04T09:42:33;3.38;;;3.08;;
77262;SDS011;66373;52.334;4.806;2023-12-04T09:45:02;4.40;;;3.15;;
77262;SDS011;66373;52.334;4.806;2023-12-04T09:47:30;3.70;;;2.83;;
77262;SDS011;66373;52.334;4.806;2023-12-04T09:50:01;3.53;;;3.20;;
77262;SDS011;66373;52.334;4.806;2023-12-04T09:52:28;4.05;;;2.92;;
77262;SDS011;66373;52.334;4.806;2023-12-04T09:54:55;3.65;;;3.33;;
77262;SDS011;66373;52.334;4.806;2023-12-04T09:57:23;3.50;;;3.20;;
77262;SDS011;66373;52.334;4.806;2023-12-04T09:59:51;3.30;;;2.88;;
77262;SDS011;66373;52.334;4.806;2023-12-04T10:02:19;4.43;;;3.40;;
77262;SDS011;66373;52.334;4.806;2023-12-04T10:04:46;5.75;;;3.00;;
77262;SDS011;66373;52.334;4.806;2023-12-04T10:07:15;3.47;;;2.97;;
77262;SDS011;66373;52.334;4.806;2023-12-04T10:09:42;3.80;;;3.08;;
77262;SDS011;66373;52.334;4.806;2023-12-04T10:12:09;3.40;;;3.08;;
77262;SDS011;66373;52.334;4.806;2023-12-04T10:14:37;3.17;;;2.88;;
77262;SDS011;66373;52.334;4.806;2023-12-04T10:17:13;3.95;;;3.58;;
77262;SDS011;66373;52.334;4.806;2023-12-04T10:19:43;3.55;;;3.15;;
77262;SDS011;66373;52.334;4.806;2023-12-04T10:22:10;7.20;;;3.78;;
77262;SDS011;66373;52.334;4.806;2023-12-04T10:24:39;4.45;;;3.53;;
77262;SDS011;66373;52.334;4.806;2023-12-04T10:27:07;4.32;;;3.55;;
77262;SDS011;66373;52.334;4.806;2023-12-04T10:29:41;4.00;;;3.08;;
77262;SDS011;66373;52.334;4.806;2023-12-04T10:32:09;4.70;;;3.50;;
77262;SDS011;66373;52.334;4.806;2023-12-04T10:34:36;5.32;;;3.58;;
77262;SDS011;66373;52.334;4.806;2023-12-04T10:37:04;5.22;;;3.67;;
77262;SDS011;66373;52.334;4.806;2023-12-04T10:39:32;4.30;;;3.90;;
77262;SDS011;66373;52.334;4.806;2023-12-04T10:42:22;5.78;;;4.28;;
77262;SDS011;66373;52.334;4.806;2023-12-04T10:44:51;6.00;;;4.10;;
77262;SDS011;66373;52.334;4.806;2023-12-04T10:47:19;8.05;;;4.65;;
77262;SDS011;66373;52.334;4.806;2023-12-04T10:49:47;4.72;;;3.97;;
77262;SDS011;66373;52.334;4.806;2023-12-04T10:52:16;5.97;;;4.72;;
77262;SDS011;66373;52.334;4.806;2023-12-04T10:54:44;4.97;;;4.25;;
77262;SDS011;66373;52.334;4.806;2023-12-04T10:57:13;5.78;;;4.90;;
77262;SDS011;66373;52.334;4.806;2023-12-04T10:59:47;6.90;;;5.00;;
77262;SDS011;66373;52.334;4.806;2023-12-04T11:02:19;6.47;;;5.05;;
77262;SDS011;66373;52.334;4.806;2023-12-04T11:04:48;6.40;;;5.28;;
77262;SDS011;66373;52.334;4.806;2023-12-04T11:07:17;5.80;;;4.80;;
77262;SDS011;66373;52.334;4.806;2023-12-04T11:09:46;7.05;;;5.93;;
77262;SDS011;66373;52.334;4.806;2023-12-04T11:12:18;6.63;;;5.30;;
77262;SDS011;66373;52.334;4.806;2023-12-04T11:14:49;10.13;;;5.80;;
77262;SDS011;66373;52.334;4.806;2023-12-04T11:17:22;7.40;;;5.70;;
77262;SDS011;66373;52.334;4.806;2023-12-04T11:19:55;7.22;;;5.90;;
77262;SDS011;66373;52.334;4.806;2023-12-04T11:22:27;8.25;;;6.07;;
77262;SDS011;66373;52.334;4.806;2023-12-04T11:24:55;7.72;;;6.03;;
77262;SDS011;66373;52.334;4.806;2023-12-04T11:27:24;8.60;;;5.95;;
77262;SDS011;66373;52.334;4.806;2023-12-04T11:29:52;7.50;;;5.65;;
77262;SDS011;66373;52.334;4.806;2023-12-04T11:32:19;9.07;;;6.30;;
77262;SDS011;66373;52.334;4.806;2023-12-04T11:34:54;6.50;;;5.88;;
77262;SDS011;66373;52.334;4.806;2023-12-04T11:37:22;9.20;;;6.55;;
77262;SDS011;66373;52.334;4.806;2023-12-04T11:39:50;6.18;;;5.57;;
77262;SDS011;66373;52.334;4.806;2023-12-04T11:42:21;6.95;;;5.80;;
77262;SDS011;66373;52.334;4.806;2023-12-04T11:44:56;7.68;;;6.70;;
77262;SDS011;66373;52.334;4.806;2023-12-04T11:47:24;7.32;;;5.53;;
77262;SDS011;66373;52.334;4.806;2023-12-04T11:49:51;6.63;;;6.03;;
77262;SDS011;66373;52.334;4.806;2023-12-04T11:52:19;7.88;;;6.32;;
77262;SDS011;66373;52.334;4.806;2023-12-04T11:54:59;7.22;;;6.43;;
77262;SDS011;66373;52.334;4.806;2023-12-04T11:57:31;7.43;;;6.25;;
77262;SDS011;66373;52.334;4.806;2023-12-04T12:00:09;7.20;;;5.95;;
77262;SDS011;66373;52.334;4.806;2023-12-04T12:02:40;7.57;;;6.05;;
77262;SDS011;66373;52.334;4.806;2023-12-04T12:05:12;10.88;;;6.60;;
77262;SDS011;66373;52.334;4.806;2023-12-04T12:07:39;8.63;;;6.20;;
77262;SDS011;66373;52.334;4.806;2023-12-04T12:10:07;7.85;;;5.72;;
77262;SDS011;66373;52.334;4.806;2023-12-04T12:12:36;8.63;;;6.03;;
77262;SDS011;66373;52.334;4.806;2023-12-04T12:15:03;7.53;;;6.13;;
77262;SDS011;66373;52.334;4.806;2023-12-04T12:17:32;7.25;;;5.78;;
77262;SDS011;66373;52.334;4.806;2023-12-04T12:19:59;7.45;;;6.13;;
77262;SDS011;66373;52.334;4.806;2023-12-04T12:22:29;7.60;;;5.93;;
77262;SDS011;66373;52.334;4.806;2023-12-04T12:24:56;7.68;;;5.78;;
77262;SDS011;66373;52.334;4.806;2023-12-04T12:27:24;7.63;;;5.95;;
77262;SDS011;66373;52.334;4.806;2023-12-04T12:29:51;7.25;;;6.00;;
77262;SDS011;66373;52.334;4.806;2023-12-04T12:32:18;7.15;;;5.68;;
77262;SDS011;66373;52.334;4.806;2023-12-04T12:34:47;7.28;;;6.47;;
77262;SDS011;66373;52.334;4.806;2023-12-04T12:37:14;6.00;;;5.25;;
77262;SDS011;66373;52.334;4.806;2023-12-04T12:39:42;6.40;;;5.55;;
77262;SDS011;66373;52.334;4.806;2023-12-04T12:42:09;6.85;;;5.82;;
77262;SDS011;66373;52.334;4.806;2023-12-04T12:44:37;7.53;;;5.63;;
77262;SDS011;66373;52.334;4.806;2023-12-04T12:47:05;6.80;;;5.05;;
77262;SDS011;66373;52.334;4.806;2023-12-04T12:49:33;8.48;;;5.82;;
77262;SDS011;66373;52.334;4.806;2023-12-04T12:52:04;6.03;;;5.43;;
77262;SDS011;66373;52.334;4.806;2023-12-04T12:54:33;7.57;;;4.60;;
77262;SDS011;66373;52.334;4.806;2023-12-04T12:57:02;6.63;;;5.07;;
77262;SDS011;66373;52.334;4.806;2023-12-04T12:59:30;6.32;;;5.05;;
77262;SDS011;66373;52.334;4.806;2023-12-04T13:01:57;8.10;;;5.20;;
77262;SDS011;66373;52.334;4.806;2023-12-04T13:04:25;5.65;;;4.88;;
77262;SDS011;66373;52.334;4.806;2023-12-04T13:06:53;6.85;;;4.72;;
77262;SDS011;66373;52.334;4.806;2023-12-04T13:09:21;6.30;;;5.05;;
77262;SDS011;66373;52.334;4.806;2023-12-04T13:11:48;8.05;;;5.30;;
77262;SDS011;66373;52.334;4.806;2023-12-04T13:14:17;6.93;;;4.75;;
77262;SDS011;66373;52.334;4.806;2023-12-04T13:16:44;5.30;;;4.80;;
77262;SDS011;66373;52.334;4.806;2023-12-04T13:19:11;6.05;;;4.78;;
77262;SDS011;66373;52.334;4.806;2023-12-04T13:21:38;5.55;;;4.60;;
77262;SDS011;66373;52.334;4.806;2023-12-04T13:24:06;5.25;;;4.43;;
77262;SDS011;66373;52.334;4.806;2023-12-04T13:26:36;5.00;;;4.28;;
77262;SDS011;66373;52.334;4.806;2023-12-04T13:29:03;6.03;;;4.57;;
77262;SDS011;66373;52.334;4.806;2023-12-04T13:31:31;5.68;;;4.32;;
77262;SDS011;66373;52.334;4.806;2023-12-04T13:33:58;5.45;;;4.32;;
77262;SDS011;66373;52.334;4.806;2023-12-04T13:36:25;5.53;;;4.53;;
77262;SDS011;66373;52.334;4.806;2023-12-04T13:38:53;8.75;;;4.75;;
77262;SDS011;66373;52.334;4.806;2023-12-04T13:41:20;4.72;;;4.22;;
77262;SDS011;66373;52.334;4.806;2023-12-04T13:44:03;4.95;;;3.90;;
77262;SDS011;66373;52.334;4.806;2023-12-04T13:46:30;4.40;;;4.00;;
77262;SDS011;66373;52.334;4.806;2023-12-04T13:48:57;4.50;;;4.13;;
77262;SDS011;66373;52.334;4.806;2023-12-04T13:51:25;5.72;;;4.18;;
77262;SDS011;66373;52.334;4.806;2023-12-04T13:53:52;4.50;;;4.10;;
77262;SDS011;66373;52.334;4.806;2023-12-04T13:56:26;5.22;;;4.13;;
77262;SDS011;66373;52.334;4.806;2023-12-04T13:59:08;4.60;;;4.20;;
77262;SDS011;66373;52.334;4.806;2023-12-04T14:01:43;4.40;;;3.90;;
77262;SDS011;66373;52.334;4.806;2023-12-04T14:04:10;4.70;;;4.20;;
77262;SDS011;66373;52.334;4.806;2023-12-04T14:06:37;3.83;;;3.53;;
77262;SDS011;66373;52.334;4.806;2023-12-04T14:09:05;3.92;;;3.60;;
77262;SDS011;66373;52.334;4.806;2023-12-04T14:11:36;4.35;;;3.83;;
77262;SDS011;66373;52.334;4.806;2023-12-04T14:14:03;4.40;;;4.00;;
77262;SDS011;66373;52.334;4.806;2023-12-04T14:16:31;3.92;;;3.60;;
77262;SDS011;66373;52.334;4.806;2023-12-04T14:18:58;3.92;;;3.63;;
77262;SDS011;66373;52.334;4.806;2023-12-04T14:21:25;3.33;;;3.05;;
77262;SDS011;66373;52.334;4.806;2023-12-04T14:23:52;4.30;;;3.90;;
77262;SDS011;66373;52.334;4.806;2023-12-04T14:26:19;4.13;;;3.72;;
77262;SDS011;66373;52.334;4.806;2023-12-04T14:28:46;4.35;;;3.92;;
77262;SDS011;66373;52.334;4.806;2023-12-04T14:31:13;3.92;;;3.63;;
77262;SDS011;66373;52.334;4.806;2023-12-04T14:33:42;3.90;;;3.60;;
77262;SDS011;66373;52.334;4.806;2023-12-04T14:36:09;4.07;;;3.30;;
77262;SDS011;66373;52.334;4.806;2023-12-04T14:38:38;3.67;;;3.38;;
77262;SDS011;66373;52.334;4.806;2023-12-04T14:41:06;4.22;;;3.72;;
77262;SDS011;66373;52.334;4.806;2023-12-04T14:43:35;4.28;;;3.88;;
77262;SDS011;66373;52.334;4.806;2023-12-04T14:46:02;4.28;;;3.45;;
77262;SDS011;66373;52.334;4.806;2023-12-04T14:48:30;3.63;;;3.33;;
77262;SDS011;66373;52.334;4.806;2023-12-04T14:50:58;3.70;;;3.40;;
77262;SDS011;66373;52.334;4.806;2023-12-04T14:53:25;4.13;;;3.72;;